sensor_id;sensor_type;location;lat;lon;timestamp;P1;durP1;ratioP1;P2;durP2;ratioP2
52208;SDS011;38507;53.132;6.394;2023-01-29T00:01:27;13.63;;;7.97;;
52208;SDS011;38507;53.132;6.394;2023-01-29T00:03:53;18.02;;;8.65;;
52208;SDS011;38507;53.132;6.394;2023-01-29T00:06:18;16.88;;;8.25;;
52208;SDS011;38507;53.132;6.394;2023-01-29T00:08:44;16.15;;;9.02;;
52208;SDS011;38507;53.132;6.394;2023-01-29T00:11:10;17.73;;;8.32;;
52208;SDS011;38507;53.132;6.394;2023-01-29T00:13:36;17.63;;;8.43;;
52208;SDS011;38507;53.132;6.394;2023-01-29T00:16:02;18.85;;;9.02;;
52208;SDS011;38507;53.132;6.394;2023-01-29T00:18:28;22.95;;;8.73;;
52208;SDS011;38507;53.132;6.394;2023-01-29T00:20:55;14.70;;;8.63;;
52208;SDS011;38507;53.132;6.394;2023-01-29T00:23:21;15.35;;;8.50;;
52208;SDS011;38507;53.132;6.394;2023-01-29T00:25:47;14.10;;;8.38;;
52208;SDS011;38507;53.132;6.394;2023-01-29T00:28:13;18.33;;;8.85;;
52208;SDS011;38507;53.132;6.394;2023-01-29T00:30:39;14.63;;;8.30;;
52208;SDS011;38507;53.132;6.394;2023-01-29T00:33:05;17.85;;;8.93;;
52208;SDS011;38507;53.132;6.394;2023-01-29T00:35:31;14.10;;;8.43;;
52208;SDS011;38507;53.132;6.394;2023-01-29T00:37:57;15.98;;;8.88;;
52208;SDS011;38507;53.132;6.394;2023-01-29T00:40:23;18.58;;;9.10;;
52208;SDS011;38507;53.132;6.394;2023-01-29T00:42:50;18.42;;;9.35;;
52208;SDS011;38507;53.132;6.394;2023-01-29T00:45:35;15.98;;;8.88;;
52208;SDS011;38507;53.132;6.394;2023-01-29T00:48:01;18.52;;;9.40;;
52208;SDS011;38507;53.132;6.394;2023-01-29T00:50:28;13.90;;;9.02;;
52208;SDS011;38507;53.132;6.394;2023-01-29T00:52:54;13.65;;;9.35;;
52208;SDS011;38507;53.132;6.394;2023-01-29T00:55:20;17.85;;;10.07;;
52208;SDS011;38507;53.132;6.394;2023-01-29T00:57:46;17.17;;;9.32;;
52208;SDS011;38507;53.132;6.394;2023-01-29T01:00:13;19.58;;;9.93;;
52208;SDS011;38507;53.132;6.394;2023-01-29T01:02:41;15.73;;;9.43;;
52208;SDS011;38507;53.132;6.394;2023-01-29T01:05:25;16.85;;;9.40;;
52208;SDS011;38507;53.132;6.394;2023-01-29T01:07:52;17.50;;;9.77;;
52208;SDS011;38507;53.132;6.394;2023-01-29T01:10:24;20.02;;;10.85;;
52208;SDS011;38507;53.132;6.394;2023-01-29T01:12:55;18.15;;;10.82;;
52208;SDS011;38507;53.132;6.394;2023-01-29T01:15:23;24.17;;;11.45;;
52208;SDS011;38507;53.132;6.394;2023-01-29T01:17:51;18.15;;;10.43;;
52208;SDS011;38507;53.132;6.394;2023-01-29T01:20:18;17.20;;;11.00;;
52208;SDS011;38507;53.132;6.394;2023-01-29T01:22:44;17.45;;;11.27;;
52208;SDS011;38507;53.132;6.394;2023-01-29T01:25:10;17.55;;;10.90;;
52208;SDS011;38507;53.132;6.394;2023-01-29T01:27:35;17.35;;;10.68;;
52208;SDS011;38507;53.132;6.394;2023-01-29T01:30:15;20.40;;;10.82;;
52208;SDS011;38507;53.132;6.394;2023-01-29T01:32:53;18.05;;;10.95;;
52208;SDS011;38507;53.132;6.394;2023-01-29T01:35:29;21.13;;;10.43;;
52208;SDS011;38507;53.132;6.394;2023-01-29T01:37:55;21.10;;;10.52;;
52208;SDS011;38507;53.132;6.394;2023-01-29T01:40:30;20.50;;;11.25;;
52208;SDS011;38507;53.132;6.394;2023-01-29T01:43:18;19.20;;;10.10;;
52208;SDS011;38507;53.132;6.394;2023-01-29T01:45:44;17.08;;;10.63;;
52208;SDS011;38507;53.132;6.394;2023-01-29T01:48:11;17.88;;;10.93;;
52208;SDS011;38507;53.132;6.394;2023-01-29T01:50:45;18.70;;;11.18;;
52208;SDS011;38507;53.132;6.394;2023-01-29T01:53:20;19.80;;;11.32;;
52208;SDS011;38507;53.132;6.394;2023-01-29T01:55:51;20.52;;;11.13;;
52208;SDS011;38507;53.132;6.394;2023-01-29T01:58:22;22.27;;;11.13;;
52208;SDS011;38507;53.132;6.394;2023-01-29T02:00:50;23.00;;;11.18;;
52208;SDS011;38507;53.132;6.394;2023-01-29T02:03:17;21.48;;;11.77;;
52208;SDS011;38507;53.132;6.394;2023-01-29T02:06:03;19.45;;;10.50;;
52208;SDS011;38507;53.132;6.394;2023-01-29T02:08:55;19.48;;;11.13;;
52208;SDS011;38507;53.132;6.394;2023-01-29T02:11:45;17.80;;;11.55;;
52208;SDS011;38507;53.132;6.394;2023-01-29T02:14:11;20.40;;;12.13;;
52208;SDS011;38507;53.132;6.394;2023-01-29T02:16:36;21.65;;;11.60;;
52208;SDS011;38507;53.132;6.394;2023-01-29T02:19:03;19.85;;;11.77;;
52208;SDS011;38507;53.132;6.394;2023-01-29T02:27:14;20.75;;;12.45;;
52208;SDS011;38507;53.132;6.394;2023-01-29T02:30:02;18.70;;;12.23;;
52208;SDS011;38507;53.132;6.394;2023-01-29T02:32:39;24.67;;;13.20;;
52208;SDS011;38507;53.132;6.394;2023-01-29T02:35:28;21.50;;;13.40;;
52208;SDS011;38507;53.132;6.394;2023-01-29T02:48:39;23.08;;;14.02;;
52208;SDS011;38507;53.132;6.394;2023-01-29T02:51:33;23.50;;;14.18;;
52208;SDS011;38507;53.132;6.394;2023-01-29T02:54:16;22.90;;;13.85;;
52208;SDS011;38507;53.132;6.394;2023-01-29T02:56:50;24.00;;;13.75;;
52208;SDS011;38507;53.132;6.394;2023-01-29T02:59:34;23.20;;;13.75;;
52208;SDS011;38507;53.132;6.394;2023-01-29T03:02:05;24.10;;;14.02;;
52208;SDS011;38507;53.132;6.394;2023-01-29T03:04:35;22.38;;;13.85;;
52208;SDS011;38507;53.132;6.394;2023-01-29T03:07:08;24.40;;;14.40;;
52208;SDS011;38507;53.132;6.394;2023-01-29T03:09:57;26.05;;;14.75;;
52208;SDS011;38507;53.132;6.394;2023-01-29T03:12:26;20.95;;;13.52;;
52208;SDS011;38507;53.132;6.394;2023-01-29T03:14:58;21.27;;;13.98;;
52208;SDS011;38507;53.132;6.394;2023-01-29T03:17:43;20.08;;;13.02;;
52208;SDS011;38507;53.132;6.394;2023-01-29T03:22:43;24.98;;;13.27;;
52208;SDS011;38507;53.132;6.394;2023-01-29T03:25:14;27.98;;;13.98;;
52208;SDS011;38507;53.132;6.394;2023-01-29T03:28:03;21.40;;;13.13;;
52208;SDS011;38507;53.132;6.394;2023-01-29T03:30:51;20.80;;;13.88;;
52208;SDS011;38507;53.132;6.394;2023-01-29T03:33:51;18.70;;;12.43;;
52208;SDS011;38507;53.132;6.394;2023-01-29T03:36:33;27.25;;;15.05;;
52208;SDS011;38507;53.132;6.394;2023-01-29T03:39:07;23.40;;;14.32;;
52208;SDS011;38507;53.132;6.394;2023-01-29T03:41:36;22.80;;;13.57;;
52208;SDS011;38507;53.132;6.394;2023-01-29T03:46:51;20.40;;;13.75;;
52208;SDS011;38507;53.132;6.394;2023-01-29T03:55:07;23.75;;;14.13;;
52208;SDS011;38507;53.132;6.394;2023-01-29T04:00:13;25.13;;;16.08;;
52208;SDS011;38507;53.132;6.394;2023-01-29T04:02:47;24.88;;;14.80;;
52208;SDS011;38507;53.132;6.394;2023-01-29T04:05:23;23.77;;;15.75;;
52208;SDS011;38507;53.132;6.394;2023-01-29T04:07:54;23.92;;;14.10;;
52208;SDS011;38507;53.132;6.394;2023-01-29T04:10:26;22.15;;;14.80;;
52208;SDS011;38507;53.132;6.394;2023-01-29T04:12:55;21.50;;;14.57;;
52208;SDS011;38507;53.132;6.394;2023-01-29T04:15:29;26.58;;;14.02;;
52208;SDS011;38507;53.132;6.394;2023-01-29T04:18:10;25.70;;;15.40;;
52208;SDS011;38507;53.132;6.394;2023-01-29T04:20:36;27.45;;;15.88;;
52208;SDS011;38507;53.132;6.394;2023-01-29T04:23:04;26.67;;;16.38;;
52208;SDS011;38507;53.132;6.394;2023-01-29T04:25:35;24.70;;;15.55;;
52208;SDS011;38507;53.132;6.394;2023-01-29T04:30:47;24.70;;;15.70;;
52208;SDS011;38507;53.132;6.394;2023-01-29T04:36:04;25.08;;;16.60;;
52208;SDS011;38507;53.132;6.394;2023-01-29T04:50:12;28.35;;;16.48;;
52208;SDS011;38507;53.132;6.394;2023-01-29T04:52:49;25.40;;;15.77;;
52208;SDS011;38507;53.132;6.394;2023-01-29T04:58:23;24.88;;;16.83;;
52208;SDS011;38507;53.132;6.394;2023-01-29T05:00:56;27.23;;;16.23;;
52208;SDS011;38507;53.132;6.394;2023-01-29T05:03:23;27.77;;;16.85;;
52208;SDS011;38507;53.132;6.394;2023-01-29T05:05:50;25.05;;;16.70;;
52208;SDS011;38507;53.132;6.394;2023-01-29T05:08:20;34.58;;;18.73;;
52208;SDS011;38507;53.132;6.394;2023-01-29T05:10:49;26.17;;;16.52;;
52208;SDS011;38507;53.132;6.394;2023-01-29T05:13:16;26.50;;;16.67;;
52208;SDS011;38507;53.132;6.394;2023-01-29T05:15:48;29.75;;;16.20;;
52208;SDS011;38507;53.132;6.394;2023-01-29T05:18:20;27.33;;;16.98;;
52208;SDS011;38507;53.132;6.394;2023-01-29T05:20:46;24.80;;;15.80;;
52208;SDS011;38507;53.132;6.394;2023-01-29T05:23:16;33.33;;;17.50;;
52208;SDS011;38507;53.132;6.394;2023-01-29T05:25:44;27.70;;;15.82;;
52208;SDS011;38507;53.132;6.394;2023-01-29T05:28:10;24.58;;;16.25;;
52208;SDS011;38507;53.132;6.394;2023-01-29T05:30:47;31.00;;;17.15;;
52208;SDS011;38507;53.132;6.394;2023-01-29T05:33:21;27.23;;;16.40;;
52208;SDS011;38507;53.132;6.394;2023-01-29T05:35:58;23.90;;;15.40;;
52208;SDS011;38507;53.132;6.394;2023-01-29T05:38:24;25.60;;;15.73;;
52208;SDS011;38507;53.132;6.394;2023-01-29T05:40:53;27.35;;;17.00;;
52208;SDS011;38507;53.132;6.394;2023-01-29T05:43:22;23.17;;;15.52;;
52208;SDS011;38507;53.132;6.394;2023-01-29T05:45:59;25.98;;;17.17;;
52208;SDS011;38507;53.132;6.394;2023-01-29T05:48:25;27.02;;;17.10;;
52208;SDS011;38507;53.132;6.394;2023-01-29T05:50:53;24.92;;;15.57;;
52208;SDS011;38507;53.132;6.394;2023-01-29T05:53:19;26.50;;;16.30;;
52208;SDS011;38507;53.132;6.394;2023-01-29T05:55:45;24.40;;;16.73;;
52208;SDS011;38507;53.132;6.394;2023-01-29T05:58:12;26.13;;;16.90;;
52208;SDS011;38507;53.132;6.394;2023-01-29T06:00:43;28.77;;;17.23;;
52208;SDS011;38507;53.132;6.394;2023-01-29T06:03:09;28.98;;;17.55;;
52208;SDS011;38507;53.132;6.394;2023-01-29T06:05:38;29.92;;;19.55;;
52208;SDS011;38507;53.132;6.394;2023-01-29T06:08:04;31.40;;;20.15;;
52208;SDS011;38507;53.132;6.394;2023-01-29T06:10:31;33.25;;;21.40;;
52208;SDS011;38507;53.132;6.394;2023-01-29T06:12:57;35.05;;;21.33;;
52208;SDS011;38507;53.132;6.394;2023-01-29T06:15:22;43.70;;;23.27;;
52208;SDS011;38507;53.132;6.394;2023-01-29T06:17:52;39.58;;;24.20;;
52208;SDS011;38507;53.132;6.394;2023-01-29T06:20:18;37.72;;;22.98;;
52208;SDS011;38507;53.132;6.394;2023-01-29T06:22:44;36.80;;;22.58;;
52208;SDS011;38507;53.132;6.394;2023-01-29T06:25:13;41.75;;;22.95;;
52208;SDS011;38507;53.132;6.394;2023-01-29T06:27:38;39.40;;;23.05;;
52208;SDS011;38507;53.132;6.394;2023-01-29T06:30:07;32.85;;;19.77;;
52208;SDS011;38507;53.132;6.394;2023-01-29T06:32:33;40.40;;;23.02;;
52208;SDS011;38507;53.132;6.394;2023-01-29T06:34:58;40.85;;;23.83;;
52208;SDS011;38507;53.132;6.394;2023-01-29T06:37:24;37.33;;;22.23;;
52208;SDS011;38507;53.132;6.394;2023-01-29T06:39:50;40.58;;;21.90;;
52208;SDS011;38507;53.132;6.394;2023-01-29T06:42:15;39.65;;;24.13;;
52208;SDS011;38507;53.132;6.394;2023-01-29T06:44:41;40.40;;;23.67;;
52208;SDS011;38507;53.132;6.394;2023-01-29T06:47:07;38.17;;;22.05;;
52208;SDS011;38507;53.132;6.394;2023-01-29T06:49:32;42.10;;;25.08;;
52208;SDS011;38507;53.132;6.394;2023-01-29T06:51:58;34.95;;;20.98;;
52208;SDS011;38507;53.132;6.394;2023-01-29T06:54:24;41.17;;;24.08;;
52208;SDS011;38507;53.132;6.394;2023-01-29T06:56:50;35.25;;;22.05;;
52208;SDS011;38507;53.132;6.394;2023-01-29T06:59:16;36.83;;;23.17;;
52208;SDS011;38507;53.132;6.394;2023-01-29T07:01:42;39.72;;;21.98;;
52208;SDS011;38507;53.132;6.394;2023-01-29T07:04:08;39.03;;;23.45;;
52208;SDS011;38507;53.132;6.394;2023-01-29T07:06:40;35.80;;;23.95;;
52208;SDS011;38507;53.132;6.394;2023-01-29T07:09:05;36.78;;;23.33;;
52208;SDS011;38507;53.132;6.394;2023-01-29T07:11:32;40.20;;;24.77;;
52208;SDS011;38507;53.132;6.394;2023-01-29T07:13:59;40.15;;;25.45;;
52208;SDS011;38507;53.132;6.394;2023-01-29T07:16:24;40.60;;;23.95;;
52208;SDS011;38507;53.132;6.394;2023-01-29T07:18:50;35.90;;;24.20;;
52208;SDS011;38507;53.132;6.394;2023-01-29T07:21:16;39.88;;;26.15;;
52208;SDS011;38507;53.132;6.394;2023-01-29T07:23:41;41.08;;;24.58;;
52208;SDS011;38507;53.132;6.394;2023-01-29T07:26:10;41.80;;;27.75;;
52208;SDS011;38507;53.132;6.394;2023-01-29T07:28:36;41.60;;;24.98;;
52208;SDS011;38507;53.132;6.394;2023-01-29T07:31:03;47.65;;;28.65;;
52208;SDS011;38507;53.132;6.394;2023-01-29T07:33:29;40.70;;;24.58;;
52208;SDS011;38507;53.132;6.394;2023-01-29T07:35:55;49.30;;;27.35;;
52208;SDS011;38507;53.132;6.394;2023-01-29T07:38:21;45.80;;;29.50;;
52208;SDS011;38507;53.132;6.394;2023-01-29T07:40:46;44.75;;;28.77;;
52208;SDS011;38507;53.132;6.394;2023-01-29T07:43:13;45.70;;;27.52;;
52208;SDS011;38507;53.132;6.394;2023-01-29T07:45:40;41.08;;;28.60;;
52208;SDS011;38507;53.132;6.394;2023-01-29T07:48:06;47.45;;;26.35;;
52208;SDS011;38507;53.132;6.394;2023-01-29T07:50:35;47.60;;;27.25;;
52208;SDS011;38507;53.132;6.394;2023-01-29T07:53:01;41.42;;;29.08;;
52208;SDS011;38507;53.132;6.394;2023-01-29T07:55:30;39.50;;;26.50;;
52208;SDS011;38507;53.132;6.394;2023-01-29T07:57:58;40.90;;;25.30;;
52208;SDS011;38507;53.132;6.394;2023-01-29T08:00:25;42.67;;;27.90;;
52208;SDS011;38507;53.132;6.394;2023-01-29T08:02:53;42.60;;;23.35;;
52208;SDS011;38507;53.132;6.394;2023-01-29T08:05:25;39.10;;;27.30;;
52208;SDS011;38507;53.132;6.394;2023-01-29T08:07:51;45.72;;;26.42;;
52208;SDS011;38507;53.132;6.394;2023-01-29T08:10:18;43.45;;;27.50;;
52208;SDS011;38507;53.132;6.394;2023-01-29T08:12:44;40.55;;;27.13;;
52208;SDS011;38507;53.132;6.394;2023-01-29T08:15:09;44.42;;;29.17;;
52208;SDS011;38507;53.132;6.394;2023-01-29T08:17:38;50.03;;;28.33;;
52208;SDS011;38507;53.132;6.394;2023-01-29T08:20:07;42.60;;;25.48;;
52208;SDS011;38507;53.132;6.394;2023-01-29T08:23:04;43.47;;;27.58;;
52208;SDS011;38507;53.132;6.394;2023-01-29T08:25:32;46.40;;;28.67;;
52208;SDS011;38507;53.132;6.394;2023-01-29T08:27:58;46.20;;;26.73;;
52208;SDS011;38507;53.132;6.394;2023-01-29T08:30:25;41.75;;;26.90;;
52208;SDS011;38507;53.132;6.394;2023-01-29T08:32:55;39.50;;;23.70;;
52208;SDS011;38507;53.132;6.394;2023-01-29T08:35:21;43.20;;;26.85;;
52208;SDS011;38507;53.132;6.394;2023-01-29T08:38:02;48.17;;;28.27;;
52208;SDS011;38507;53.132;6.394;2023-01-29T08:40:32;44.35;;;27.08;;
52208;SDS011;38507;53.132;6.394;2023-01-29T08:43:11;42.90;;;25.80;;
52208;SDS011;38507;53.132;6.394;2023-01-29T08:45:39;47.92;;;29.15;;
52208;SDS011;38507;53.132;6.394;2023-01-29T08:48:07;49.05;;;28.73;;
52208;SDS011;38507;53.132;6.394;2023-01-29T08:50:33;53.17;;;28.52;;
52208;SDS011;38507;53.132;6.394;2023-01-29T08:53:00;47.50;;;28.67;;
52208;SDS011;38507;53.132;6.394;2023-01-29T08:55:27;42.97;;;26.85;;
52208;SDS011;38507;53.132;6.394;2023-01-29T08:58:01;43.70;;;25.83;;
52208;SDS011;38507;53.132;6.394;2023-01-29T09:00:29;47.03;;;28.67;;
52208;SDS011;38507;53.132;6.394;2023-01-29T09:02:56;45.13;;;26.15;;
52208;SDS011;38507;53.132;6.394;2023-01-29T09:05:23;47.38;;;28.98;;
52208;SDS011;38507;53.132;6.394;2023-01-29T09:07:50;45.95;;;28.23;;
52208;SDS011;38507;53.132;6.394;2023-01-29T09:10:30;43.72;;;24.13;;
52208;SDS011;38507;53.132;6.394;2023-01-29T09:12:56;45.65;;;27.60;;
52208;SDS011;38507;53.132;6.394;2023-01-29T09:15:22;53.65;;;27.52;;
52208;SDS011;38507;53.132;6.394;2023-01-29T09:17:48;47.90;;;29.45;;
52208;SDS011;38507;53.132;6.394;2023-01-29T09:20:13;48.58;;;28.92;;
52208;SDS011;38507;53.132;6.394;2023-01-29T09:22:39;43.35;;;25.20;;
52208;SDS011;38507;53.132;6.394;2023-01-29T09:25:08;49.97;;;27.77;;
52208;SDS011;38507;53.132;6.394;2023-01-29T09:27:34;45.70;;;28.25;;
52208;SDS011;38507;53.132;6.394;2023-01-29T09:30:04;49.38;;;27.95;;
52208;SDS011;38507;53.132;6.394;2023-01-29T09:32:31;46.42;;;25.85;;
52208;SDS011;38507;53.132;6.394;2023-01-29T09:34:59;45.42;;;28.90;;
52208;SDS011;38507;53.132;6.394;2023-01-29T09:37:25;46.20;;;27.38;;
52208;SDS011;38507;53.132;6.394;2023-01-29T09:39:51;47.60;;;27.23;;
52208;SDS011;38507;53.132;6.394;2023-01-29T09:42:24;46.70;;;28.52;;
52208;SDS011;38507;53.132;6.394;2023-01-29T09:45:02;45.58;;;27.52;;
52208;SDS011;38507;53.132;6.394;2023-01-29T09:47:34;44.47;;;26.55;;
52208;SDS011;38507;53.132;6.394;2023-01-29T09:52:39;42.88;;;25.25;;
52208;SDS011;38507;53.132;6.394;2023-01-29T09:55:28;44.33;;;26.83;;
52208;SDS011;38507;53.132;6.394;2023-01-29T10:06:14;47.33;;;27.58;;
52208;SDS011;38507;53.132;6.394;2023-01-29T10:11:42;45.38;;;26.45;;
52208;SDS011;38507;53.132;6.394;2023-01-29T10:14:38;49.17;;;27.30;;
52208;SDS011;38507;53.132;6.394;2023-01-29T10:23:39;50.15;;;27.67;;
52208;SDS011;38507;53.132;6.394;2023-01-29T10:26:12;46.20;;;26.92;;
52208;SDS011;38507;53.132;6.394;2023-01-29T10:31:48;49.30;;;27.35;;
52208;SDS011;38507;53.132;6.394;2023-01-29T10:34:38;49.63;;;29.35;;
52208;SDS011;38507;53.132;6.394;2023-01-29T10:37:13;54.55;;;30.55;;
52208;SDS011;38507;53.132;6.394;2023-01-29T10:40:01;54.47;;;28.05;;
52208;SDS011;38507;53.132;6.394;2023-01-29T10:42:49;53.78;;;29.40;;
52208;SDS011;38507;53.132;6.394;2023-01-29T10:46:30;52.08;;;27.90;;
52208;SDS011;38507;53.132;6.394;2023-01-29T10:48:38;53.55;;;29.58;;
52208;SDS011;38507;53.132;6.394;2023-01-29T10:54:24;51.83;;;28.92;;
52208;SDS011;38507;53.132;6.394;2023-01-29T11:03:07;51.65;;;29.70;;
52208;SDS011;38507;53.132;6.394;2023-01-29T11:05:53;55.75;;;29.20;;
52208;SDS011;38507;53.132;6.394;2023-01-29T11:08:49;55.58;;;27.52;;
52208;SDS011;38507;53.132;6.394;2023-01-29T11:14:23;51.22;;;26.45;;
52208;SDS011;38507;53.132;6.394;2023-01-29T11:17:19;48.60;;;26.27;;
52208;SDS011;38507;53.132;6.394;2023-01-29T11:19:55;56.83;;;30.45;;
52208;SDS011;38507;53.132;6.394;2023-01-29T11:22:23;53.53;;;28.75;;
52208;SDS011;38507;53.132;6.394;2023-01-29T11:27:46;50.75;;;26.20;;
52208;SDS011;38507;53.132;6.394;2023-01-29T11:30:37;54.78;;;30.13;;
52208;SDS011;38507;53.132;6.394;2023-01-29T11:33:20;57.90;;;30.92;;
52208;SDS011;38507;53.132;6.394;2023-01-29T11:35:53;48.58;;;26.70;;
52208;SDS011;38507;53.132;6.394;2023-01-29T11:38:30;50.80;;;27.83;;
52208;SDS011;38507;53.132;6.394;2023-01-29T11:41:12;51.38;;;27.17;;
52208;SDS011;38507;53.132;6.394;2023-01-29T11:43:55;55.50;;;27.20;;
52208;SDS011;38507;53.132;6.394;2023-01-29T11:46:23;52.58;;;27.20;;
52208;SDS011;38507;53.132;6.394;2023-01-29T11:48:52;60.60;;;29.60;;
52208;SDS011;38507;53.132;6.394;2023-01-29T11:51:20;46.03;;;22.45;;
52208;SDS011;38507;53.132;6.394;2023-01-29T11:54:00;55.78;;;25.70;;
52208;SDS011;38507;53.132;6.394;2023-01-29T11:56:29;51.75;;;25.63;;
52208;SDS011;38507;53.132;6.394;2023-01-29T11:59:02;52.20;;;25.98;;
52208;SDS011;38507;53.132;6.394;2023-01-29T12:04:41;50.92;;;24.80;;
52208;SDS011;38507;53.132;6.394;2023-01-29T12:07:10;48.72;;;24.23;;
52208;SDS011;38507;53.132;6.394;2023-01-29T12:09:55;46.88;;;24.58;;
52208;SDS011;38507;53.132;6.394;2023-01-29T12:12:30;44.15;;;24.42;;
52208;SDS011;38507;53.132;6.394;2023-01-29T12:15:05;40.95;;;22.80;;
52208;SDS011;38507;53.132;6.394;2023-01-29T12:17:45;41.33;;;23.45;;
52208;SDS011;38507;53.132;6.394;2023-01-29T12:20:37;36.72;;;20.30;;
52208;SDS011;38507;53.132;6.394;2023-01-29T12:32:25;44.75;;;21.95;;
52208;SDS011;38507;53.132;6.394;2023-01-29T12:35:20;36.35;;;21.83;;
52208;SDS011;38507;53.132;6.394;2023-01-29T12:38:00;38.35;;;20.63;;
52208;SDS011;38507;53.132;6.394;2023-01-29T12:43:30;36.35;;;20.13;;
52208;SDS011;38507;53.132;6.394;2023-01-29T12:46:30;31.50;;;18.73;;
52208;SDS011;38507;53.132;6.394;2023-01-29T12:49:17;28.02;;;17.20;;
52208;SDS011;38507;53.132;6.394;2023-01-29T12:57:41;36.85;;;18.38;;
52208;SDS011;38507;53.132;6.394;2023-01-29T13:00:23;29.83;;;16.60;;
52208;SDS011;38507;53.132;6.394;2023-01-29T13:06:06;31.30;;;17.75;;
52208;SDS011;38507;53.132;6.394;2023-01-29T13:08:53;31.63;;;17.50;;
52208;SDS011;38507;53.132;6.394;2023-01-29T13:12:01;25.98;;;15.02;;
52208;SDS011;38507;53.132;6.394;2023-01-29T13:15:05;29.75;;;15.70;;
52208;SDS011;38507;53.132;6.394;2023-01-29T13:18:01;33.28;;;17.35;;
52208;SDS011;38507;53.132;6.394;2023-01-29T13:20:37;32.72;;;17.48;;
52208;SDS011;38507;53.132;6.394;2023-01-29T13:23:41;30.98;;;16.90;;
52208;SDS011;38507;53.132;6.394;2023-01-29T13:26:11;28.42;;;17.17;;
52208;SDS011;38507;53.132;6.394;2023-01-29T13:28:43;29.42;;;16.88;;
52208;SDS011;38507;53.132;6.394;2023-01-29T13:34:22;28.08;;;16.83;;
52208;SDS011;38507;53.132;6.394;2023-01-29T13:36:57;29.35;;;17.30;;
52208;SDS011;38507;53.132;6.394;2023-01-29T13:39:31;26.70;;;14.93;;
52208;SDS011;38507;53.132;6.394;2023-01-29T13:41:59;26.83;;;15.40;;
52208;SDS011;38507;53.132;6.394;2023-01-29T13:44:37;24.42;;;14.93;;
52208;SDS011;38507;53.132;6.394;2023-01-29T13:47:36;28.02;;;16.27;;
52208;SDS011;38507;53.132;6.394;2023-01-29T13:50:20;28.08;;;14.95;;
52208;SDS011;38507;53.132;6.394;2023-01-29T13:53:18;27.42;;;15.75;;
52208;SDS011;38507;53.132;6.394;2023-01-29T13:56:27;26.05;;;14.27;;
52208;SDS011;38507;53.132;6.394;2023-01-29T13:58:59;27.08;;;14.65;;
52208;SDS011;38507;53.132;6.394;2023-01-29T14:06:52;27.55;;;16.05;;
52208;SDS011;38507;53.132;6.394;2023-01-29T14:17:16;27.88;;;16.05;;
52208;SDS011;38507;53.132;6.394;2023-01-29T14:19:50;27.65;;;15.75;;
52208;SDS011;38507;53.132;6.394;2023-01-29T14:22:22;30.65;;;16.40;;
52208;SDS011;38507;53.132;6.394;2023-01-29T14:24:52;27.10;;;17.13;;
52208;SDS011;38507;53.132;6.394;2023-01-29T14:27:29;28.85;;;16.45;;
52208;SDS011;38507;53.132;6.394;2023-01-29T14:30:00;28.90;;;17.42;;
52208;SDS011;38507;53.132;6.394;2023-01-29T14:32:31;27.45;;;14.65;;
52208;SDS011;38507;53.132;6.394;2023-01-29T14:42:15;28.38;;;13.95;;
52208;SDS011;38507;53.132;6.394;2023-01-29T14:44:57;28.40;;;17.30;;
52208;SDS011;38507;53.132;6.394;2023-01-29T14:47:55;28.45;;;17.73;;
52208;SDS011;38507;53.132;6.394;2023-01-29T14:55:56;24.75;;;15.68;;
52208;SDS011;38507;53.132;6.394;2023-01-29T15:01:01;28.42;;;17.08;;
52208;SDS011;38507;53.132;6.394;2023-01-29T15:03:42;28.23;;;17.30;;
52208;SDS011;38507;53.132;6.394;2023-01-29T15:06:17;34.63;;;20.23;;
52208;SDS011;38507;53.132;6.394;2023-01-29T15:08:52;33.17;;;19.02;;
52208;SDS011;38507;53.132;6.394;2023-01-29T15:11:46;31.70;;;18.15;;
52208;SDS011;38507;53.132;6.394;2023-01-29T15:14:48;38.00;;;20.23;;
52208;SDS011;38507;53.132;6.394;2023-01-29T15:20:41;40.88;;;22.23;;
52208;SDS011;38507;53.132;6.394;2023-01-29T15:23:28;41.03;;;20.02;;
52208;SDS011;38507;53.132;6.394;2023-01-29T15:25:58;37.30;;;19.73;;
52208;SDS011;38507;53.132;6.394;2023-01-29T15:28:31;34.53;;;18.50;;
52208;SDS011;38507;53.132;6.394;2023-01-29T15:31:02;47.35;;;23.98;;
52208;SDS011;38507;53.132;6.394;2023-01-29T15:33:30;43.25;;;23.95;;
52208;SDS011;38507;53.132;6.394;2023-01-29T15:36:11;47.13;;;21.77;;
52208;SDS011;38507;53.132;6.394;2023-01-29T15:41:34;37.85;;;19.45;;
52208;SDS011;38507;53.132;6.394;2023-01-29T15:44:11;48.05;;;23.13;;
52208;SDS011;38507;53.132;6.394;2023-01-29T15:46:44;42.42;;;21.58;;
52208;SDS011;38507;53.132;6.394;2023-01-29T15:52:32;40.45;;;22.05;;
52208;SDS011;38507;53.132;6.394;2023-01-29T15:55:18;46.90;;;24.20;;
52208;SDS011;38507;53.132;6.394;2023-01-29T15:57:47;42.22;;;20.90;;
52208;SDS011;38507;53.132;6.394;2023-01-29T16:00:56;42.20;;;21.98;;
52208;SDS011;38507;53.132;6.394;2023-01-29T16:03:24;44.08;;;22.77;;
52208;SDS011;38507;53.132;6.394;2023-01-29T16:09:18;50.08;;;23.67;;
52208;SDS011;38507;53.132;6.394;2023-01-29T16:12:09;45.25;;;22.08;;
52208;SDS011;38507;53.132;6.394;2023-01-29T16:14:38;44.42;;;23.67;;
52208;SDS011;38507;53.132;6.394;2023-01-29T16:17:21;45.33;;;23.70;;
52208;SDS011;38507;53.132;6.394;2023-01-29T16:19:58;50.50;;;25.15;;
52208;SDS011;38507;53.132;6.394;2023-01-29T16:22:30;50.85;;;25.50;;
52208;SDS011;38507;53.132;6.394;2023-01-29T16:25:06;47.85;;;25.15;;
52208;SDS011;38507;53.132;6.394;2023-01-29T16:28:02;48.63;;;21.30;;
52208;SDS011;38507;53.132;6.394;2023-01-29T16:30:29;53.95;;;26.52;;
52208;SDS011;38507;53.132;6.394;2023-01-29T16:33:04;56.28;;;27.33;;
52208;SDS011;38507;53.132;6.394;2023-01-29T16:35:32;59.80;;;30.08;;
52208;SDS011;38507;53.132;6.394;2023-01-29T16:38:13;57.70;;;24.58;;
52208;SDS011;38507;53.132;6.394;2023-01-29T16:46:55;56.17;;;26.85;;
52208;SDS011;38507;53.132;6.394;2023-01-29T16:54:47;47.40;;;25.50;;
52208;SDS011;38507;53.132;6.394;2023-01-29T16:57:22;56.60;;;28.52;;
52208;SDS011;38507;53.132;6.394;2023-01-29T16:59:57;54.58;;;29.20;;
52208;SDS011;38507;53.132;6.394;2023-01-29T17:05:32;45.88;;;25.08;;
52208;SDS011;38507;53.132;6.394;2023-01-29T17:08:01;59.22;;;27.83;;
52208;SDS011;38507;53.132;6.394;2023-01-29T17:10:57;54.20;;;26.48;;
52208;SDS011;38507;53.132;6.394;2023-01-29T17:13:33;54.60;;;27.00;;
52208;SDS011;38507;53.132;6.394;2023-01-29T17:16:14;57.22;;;27.02;;
52208;SDS011;38507;53.132;6.394;2023-01-29T17:18:53;45.08;;;21.95;;
52208;SDS011;38507;53.132;6.394;2023-01-29T17:21:28;50.92;;;26.20;;
52208;SDS011;38507;53.132;6.394;2023-01-29T17:23:54;59.00;;;29.02;;
52208;SDS011;38507;53.132;6.394;2023-01-29T17:26:20;56.25;;;25.92;;
52208;SDS011;38507;53.132;6.394;2023-01-29T17:28:50;54.20;;;26.42;;
52208;SDS011;38507;53.132;6.394;2023-01-29T17:31:16;51.30;;;23.27;;
52208;SDS011;38507;53.132;6.394;2023-01-29T17:33:45;51.17;;;24.55;;
52208;SDS011;38507;53.132;6.394;2023-01-29T17:36:17;53.88;;;25.70;;
52208;SDS011;38507;53.132;6.394;2023-01-29T17:38:52;44.92;;;22.10;;
52208;SDS011;38507;53.132;6.394;2023-01-29T17:41:24;45.65;;;22.58;;
52208;SDS011;38507;53.132;6.394;2023-01-29T17:46:18;43.65;;;22.83;;
52208;SDS011;38507;53.132;6.394;2023-01-29T17:48:45;42.55;;;22.33;;
52208;SDS011;38507;53.132;6.394;2023-01-29T17:51:17;43.90;;;20.90;;
52208;SDS011;38507;53.132;6.394;2023-01-29T17:53:45;39.42;;;21.92;;